sensor_id;sensor_type;location;lat;lon;timestamp;temperature;humidity
32594;DHT22;19018;49.046;9.140;2022-09-13T00:01:41;18.50;51.90
32594;DHT22;19018;49.046;9.140;2022-09-13T00:04:07;18.60;52.00
32594;DHT22;19018;49.046;9.140;2022-09-13T00:06:32;18.50;52.00
32594;DHT22;19018;49.046;9.140;2022-09-13T00:08:59;18.50;52.00
32594;DHT22;19018;49.046;9.140;2022-09-13T00:11:27;18.50;52.00
32594;DHT22;19018;49.046;9.140;2022-09-13T00:13:52;18.50;52.00
32594;DHT22;19018;49.046;9.140;2022-09-13T00:16:19;18.50;52.00
32594;DHT22;19018;49.046;9.140;2022-09-13T00:18:45;18.50;52.10
32594;DHT22;19018;49.046;9.140;2022-09-13T00:21:12;18.40;52.00
32594;DHT22;19018;49.046;9.140;2022-09-13T00:23:38;18.40;52.00
32594;DHT22;19018;49.046;9.140;2022-09-13T00:26:08;18.40;52.10
32594;DHT22;19018;49.046;9.140;2022-09-13T00:28:34;18.40;52.10
32594;DHT22;19018;49.046;9.140;2022-09-13T00:31:00;18.40;52.10
32594;DHT22;19018;49.046;9.140;2022-09-13T00:33:26;18.40;52.20
32594;DHT22;19018;49.046;9.140;2022-09-13T00:35:51;18.40;52.20
32594;DHT22;19018;49.046;9.140;2022-09-13T00:38:17;18.40;52.20
32594;DHT22;19018;49.046;9.140;2022-09-13T00:40:42;18.30;52.10
32594;DHT22;19018;49.046;9.140;2022-09-13T00:43:14;18.30;52.20
32594;DHT22;19018;49.046;9.140;2022-09-13T00:45:41;18.30;52.20
32594;DHT22;19018;49.046;9.140;2022-09-13T00:48:07;18.30;52.20
32594;DHT22;19018;49.046;9.140;2022-09-13T00:50:39;18.30;52.20
32594;DHT22;19018;49.046;9.140;2022-09-13T00:53:11;18.20;52.20
32594;DHT22;19018;49.046;9.140;2022-09-13T00:55:48;18.30;52.30
32594;DHT22;19018;49.046;9.140;2022-09-13T01:00:42;18.20;52.30
32594;DHT22;19018;49.046;9.140;2022-09-13T01:03:09;18.20;52.30
32594;DHT22;19018;49.046;9.140;2022-09-13T01:05:37;18.20;52.30
32594;DHT22;19018;49.046;9.140;2022-09-13T01:08:05;18.20;52.30
32594;DHT22;19018;49.046;9.140;2022-09-13T01:10:40;18.10;52.30
32594;DHT22;19018;49.046;9.140;2022-09-13T01:13:25;18.10;52.30
32594;DHT22;19018;49.046;9.140;2022-09-13T01:18:18;18.10;52.30
32594;DHT22;19018;49.046;9.140;2022-09-13T01:24:29;18.10;52.40
32594;DHT22;19018;49.046;9.140;2022-09-13T01:26:33;18.10;52.40
32594;DHT22;19018;49.046;9.140;2022-09-13T01:44:43;18.00;52.50
32594;DHT22;19018;49.046;9.140;2022-09-13T01:47:26;17.90;52.50
32594;DHT22;19018;49.046;9.140;2022-09-13T01:50:06;18.00;52.60
32594;DHT22;19018;49.046;9.140;2022-09-13T01:52:53;18.00;52.60
32594;DHT22;19018;49.046;9.140;2022-09-13T01:55:25;17.90;52.60
32594;DHT22;19018;49.046;9.140;2022-09-13T02:00:42;17.90;52.60
32594;DHT22;19018;49.046;9.140;2022-09-13T02:03:16;17.90;52.60
32594;DHT22;19018;49.046;9.140;2022-09-13T02:08:17;17.90;52.60
32594;DHT22;19018;49.046;9.140;2022-09-13T02:10:45;17.80;52.60
32594;DHT22;19018;49.046;9.140;2022-09-13T02:13:14;17.80;52.60
32594;DHT22;19018;49.046;9.140;2022-09-13T02:15:45;17.80;52.60
32594;DHT22;19018;49.046;9.140;2022-09-13T02:18:15;17.80;52.70
32594;DHT22;19018;49.046;9.140;2022-09-13T02:20:43;17.80;52.70
32594;DHT22;19018;49.046;9.140;2022-09-13T02:23:11;17.70;52.60
32594;DHT22;19018;49.046;9.140;2022-09-13T02:25:37;17.70;52.60
32594;DHT22;19018;49.046;9.140;2022-09-13T02:28:04;17.70;52.70
32594;DHT22;19018;49.046;9.140;2022-09-13T02:30:32;17.70;52.70
32594;DHT22;19018;49.046;9.140;2022-09-13T02:35:41;17.70;52.70
32594;DHT22;19018;49.046;9.140;2022-09-13T02:38:18;17.60;52.70
32594;DHT22;19018;49.046;9.140;2022-09-13T02:40:47;17.60;52.80
32594;DHT22;19018;49.046;9.140;2022-09-13T02:43:19;17.60;52.80
32594;DHT22;19018;49.046;9.140;2022-09-13T02:45:48;17.50;52.70
32594;DHT22;19018;49.046;9.140;2022-09-13T02:48:20;17.50;52.70
32594;DHT22;19018;49.046;9.140;2022-09-13T02:50:58;17.50;52.80
32594;DHT22;19018;49.046;9.140;2022-09-13T02:58:27;17.50;52.80
32594;DHT22;19018;49.046;9.140;2022-09-13T03:00:56;17.40;52.80
32594;DHT22;19018;49.046;9.140;2022-09-13T03:03:22;17.40;52.80
32594;DHT22;19018;49.046;9.140;2022-09-13T03:05:48;17.40;52.80
32594;DHT22;19018;49.046;9.140;2022-09-13T03:08:13;17.40;52.80
32594;DHT22;19018;49.046;9.140;2022-09-13T03:15:54;17.30;52.90
32594;DHT22;19018;49.046;9.140;2022-09-13T03:18:27;17.30;52.90
32594;DHT22;19018;49.046;9.140;2022-09-13T03:23:44;17.20;52.90
32594;DHT22;19018;49.046;9.140;2022-09-13T03:26:15;17.20;52.90
32594;DHT22;19018;49.046;9.140;2022-09-13T03:28:54;17.20;52.90
32594;DHT22;19018;49.046;9.140;2022-09-13T03:36:56;17.10;52.90
32594;DHT22;19018;49.046;9.140;2022-09-13T03:39:32;17.10;53.00
32594;DHT22;19018;49.046;9.140;2022-09-13T03:42:00;17.00;53.00
32594;DHT22;19018;49.046;9.140;2022-09-13T03:44:30;17.00;53.00
32594;DHT22;19018;49.046;9.140;2022-09-13T03:46:56;17.00;53.00
32594;DHT22;19018;49.046;9.140;2022-09-13T03:49:24;17.00;53.10
32594;DHT22;19018;49.046;9.140;2022-09-13T03:51:51;16.90;53.00
32594;DHT22;19018;49.046;9.140;2022-09-13T03:54:23;16.90;53.00
32594;DHT22;19018;49.046;9.140;2022-09-13T03:59:35;16.80;53.00
32594;DHT22;19018;49.046;9.140;2022-09-13T04:02:03;16.80;53.00
32594;DHT22;19018;49.046;9.140;2022-09-13T04:04:29;16.80;53.00
32594;DHT22;19018;49.046;9.140;2022-09-13T04:06:54;16.80;53.10
32594;DHT22;19018;49.046;9.140;2022-09-13T04:09:21;16.70;53.00
32594;DHT22;19018;49.046;9.140;2022-09-13T04:11:47;16.70;53.00
32594;DHT22;19018;49.046;9.140;2022-09-13T04:14:12;16.70;53.00
32594;DHT22;19018;49.046;9.140;2022-09-13T04:16:40;16.70;53.00
32594;DHT22;19018;49.046;9.140;2022-09-13T04:19:06;16.60;53.00
32594;DHT22;19018;49.046;9.140;2022-09-13T04:21:31;16.60;53.00
32594;DHT22;19018;49.046;9.140;2022-09-13T04:23:57;16.60;53.00
32594;DHT22;19018;49.046;9.140;2022-09-13T04:26:22;16.60;53.00
32594;DHT22;19018;49.046;9.140;2022-09-13T04:28:48;16.60;53.10
32594;DHT22;19018;49.046;9.140;2022-09-13T04:31:14;16.40;53.00
32594;DHT22;19018;49.046;9.140;2022-09-13T04:33:39;16.50;53.10
32594;DHT22;19018;49.046;9.140;2022-09-13T04:36:05;16.40;53.10
32594;DHT22;19018;49.046;9.140;2022-09-13T04:38:31;16.40;53.10
32594;DHT22;19018;49.046;9.140;2022-09-13T04:40:56;16.40;53.20
32594;DHT22;19018;49.046;9.140;2022-09-13T04:43:22;16.40;53.30
32594;DHT22;19018;49.046;9.140;2022-09-13T04:45:48;16.30;53.20
32594;DHT22;19018;49.046;9.140;2022-09-13T04:48:13;16.40;53.20
32594;DHT22;19018;49.046;9.140;2022-09-13T04:50:39;16.30;53.20
32594;DHT22;19018;49.046;9.140;2022-09-13T04:53:05;16.30;53.30
32594;DHT22;19018;49.046;9.140;2022-09-13T04:55:30;16.30;53.30
32594;DHT22;19018;49.046;9.140;2022-09-13T04:57:56;16.30;53.30
32594;DHT22;19018;49.046;9.140;2022-09-13T05:00:22;16.30;53.30
32594;DHT22;19018;49.046;9.140;2022-09-13T05:02:48;16.20;53.30
32594;DHT22;19018;49.046;9.140;2022-09-13T05:05:14;16.20;53.30
32594;DHT22;19018;49.046;9.140;2022-09-13T05:07:39;16.20;53.30
32594;DHT22;19018;49.046;9.140;2022-09-13T05:10:05;16.20;53.40
32594;DHT22;19018;49.046;9.140;2022-09-13T05:12:31;16.20;53.40
32594;DHT22;19018;49.046;9.140;2022-09-13T05:14:56;16.10;53.40
32594;DHT22;19018;49.046;9.140;2022-09-13T05:17:22;16.10;53.50
32594;DHT22;19018;49.046;9.140;2022-09-13T05:19:47;16.10;53.50
32594;DHT22;19018;49.046;9.140;2022-09-13T05:22:13;16.10;53.50
32594;DHT22;19018;49.046;9.140;2022-09-13T05:24:39;16.10;53.50
32594;DHT22;19018;49.046;9.140;2022-09-13T05:27:04;16.10;53.50
32594;DHT22;19018;49.046;9.140;2022-09-13T05:29:30;16.00;53.50
32594;DHT22;19018;49.046;9.140;2022-09-13T05:31:55;16.00;53.50
32594;DHT22;19018;49.046;9.140;2022-09-13T05:34:21;16.00;53.50
32594;DHT22;19018;49.046;9.140;2022-09-13T05:36:46;16.00;53.60
32594;DHT22;19018;49.046;9.140;2022-09-13T05:39:15;16.00;53.60
32594;DHT22;19018;49.046;9.140;2022-09-13T05:41:46;16.00;53.60
32594;DHT22;19018;49.046;9.140;2022-09-13T05:44:11;16.00;53.60
32594;DHT22;19018;49.046;9.140;2022-09-13T05:49:03;16.00;53.60
32594;DHT22;19018;49.046;9.140;2022-09-13T05:53:55;16.00;53.70
32594;DHT22;19018;49.046;9.140;2022-09-13T05:56:23;16.00;53.80
32594;DHT22;19018;49.046;9.140;2022-09-13T06:01:15;16.00;53.80
32594;DHT22;19018;49.046;9.140;2022-09-13T06:03:41;16.00;53.80
32594;DHT22;19018;49.046;9.140;2022-09-13T06:06:07;16.00;53.90
32594;DHT22;19018;49.046;9.140;2022-09-13T06:08:34;16.00;53.90
32594;DHT22;19018;49.046;9.140;2022-09-13T06:11:04;16.00;53.90
32594;DHT22;19018;49.046;9.140;2022-09-13T06:13:30;16.00;53.90
32594;DHT22;19018;49.046;9.140;2022-09-13T06:15:56;16.00;53.90
32594;DHT22;19018;49.046;9.140;2022-09-13T06:18:22;16.00;53.90
32594;DHT22;19018;49.046;9.140;2022-09-13T06:20:49;16.10;53.90
32594;DHT22;19018;49.046;9.140;2022-09-13T06:23:14;16.00;53.90
32594;DHT22;19018;49.046;9.140;2022-09-13T06:25:40;16.10;53.90
32594;DHT22;19018;49.046;9.140;2022-09-13T06:28:06;16.10;53.90
32594;DHT22;19018;49.046;9.140;2022-09-13T06:30:32;16.10;53.90
32594;DHT22;19018;49.046;9.140;2022-09-13T06:32:58;16.10;54.00
32594;DHT22;19018;49.046;9.140;2022-09-13T06:35:23;16.10;54.00
32594;DHT22;19018;49.046;9.140;2022-09-13T06:37:49;16.10;54.00
32594;DHT22;19018;49.046;9.140;2022-09-13T06:40:14;16.20;54.10
32594;DHT22;19018;49.046;9.140;2022-09-13T06:42:41;16.20;54.10
32594;DHT22;19018;49.046;9.140;2022-09-13T06:45:06;16.20;54.10
32594;DHT22;19018;49.046;9.140;2022-09-13T06:47:34;16.20;54.10
32594;DHT22;19018;49.046;9.140;2022-09-13T06:50:00;16.30;54.20
32594;DHT22;19018;49.046;9.140;2022-09-13T06:52:25;16.30;54.30
32594;DHT22;19018;49.046;9.140;2022-09-13T06:54:52;16.40;54.40
32594;DHT22;19018;49.046;9.140;2022-09-13T06:57:18;16.40;54.50
32594;DHT22;19018;49.046;9.140;2022-09-13T06:59:43;16.40;54.60
32594;DHT22;19018;49.046;9.140;2022-09-13T07:02:09;16.40;54.60
32594;DHT22;19018;49.046;9.140;2022-09-13T07:04:35;16.50;54.60
32594;DHT22;19018;49.046;9.140;2022-09-13T07:07:00;16.50;54.60
32594;DHT22;19018;49.046;9.140;2022-09-13T07:09:26;16.50;54.70
32594;DHT22;19018;49.046;9.140;2022-09-13T07:11:53;16.60;54.90
32594;DHT22;19018;49.046;9.140;2022-09-13T07:14:23;16.60;54.90
32594;DHT22;19018;49.046;9.140;2022-09-13T07:16:49;16.70;55.00
32594;DHT22;19018;49.046;9.140;2022-09-13T07:19:16;16.70;55.20
32594;DHT22;19018;49.046;9.140;2022-09-13T07:21:42;16.80;55.30
32594;DHT22;19018;49.046;9.140;2022-09-13T07:24:08;16.90;55.30
32594;DHT22;19018;49.046;9.140;2022-09-13T07:26:34;16.90;55.40
32594;DHT22;19018;49.046;9.140;2022-09-13T07:29:00;16.90;55.40
32594;DHT22;19018;49.046;9.140;2022-09-13T07:31:36;17.00;55.70
32594;DHT22;19018;49.046;9.140;2022-09-13T07:34:04;17.00;55.80
32594;DHT22;19018;49.046;9.140;2022-09-13T07:36:30;17.10;55.90
32594;DHT22;19018;49.046;9.140;2022-09-13T07:38:56;17.20;56.20
32594;DHT22;19018;49.046;9.140;2022-09-13T07:41:22;17.30;56.30
32594;DHT22;19018;49.046;9.140;2022-09-13T07:43:48;17.40;56.20
32594;DHT22;19018;49.046;9.140;2022-09-13T07:46:25;17.50;56.50
32594;DHT22;19018;49.046;9.140;2022-09-13T07:48:51;17.50;56.50
32594;DHT22;19018;49.046;9.140;2022-09-13T07:51:19;17.60;56.40
32594;DHT22;19018;49.046;9.140;2022-09-13T07:53:48;17.60;56.60
32594;DHT22;19018;49.046;9.140;2022-09-13T07:58:40;17.80;56.50
32594;DHT22;19018;49.046;9.140;2022-09-13T08:01:13;17.90;56.80
32594;DHT22;19018;49.046;9.140;2022-09-13T08:03:39;17.90;56.90
32594;DHT22;19018;49.046;9.140;2022-09-13T08:06:05;18.10;56.90
32594;DHT22;19018;49.046;9.140;2022-09-13T08:08:31;18.10;56.80
32594;DHT22;19018;49.046;9.140;2022-09-13T08:13:23;18.30;57.20
32594;DHT22;19018;49.046;9.140;2022-09-13T08:15:49;18.30;56.90
32594;DHT22;19018;49.046;9.140;2022-09-13T08:18:15;18.40;56.90
32594;DHT22;19018;49.046;9.140;2022-09-13T08:20:41;18.50;57.00
32594;DHT22;19018;49.046;9.140;2022-09-13T08:23:06;18.60;57.50
32594;DHT22;19018;49.046;9.140;2022-09-13T08:25:33;18.60;57.70
32594;DHT22;19018;49.046;9.140;2022-09-13T08:28:13;18.70;57.50
32594;DHT22;19018;49.046;9.140;2022-09-13T08:30:39;18.70;57.40
32594;DHT22;19018;49.046;9.140;2022-09-13T08:33:06;18.80;57.60
32594;DHT22;19018;49.046;9.140;2022-09-13T08:35:32;19.00;57.60
32594;DHT22;19018;49.046;9.140;2022-09-13T08:37:58;19.00;57.50
32594;DHT22;19018;49.046;9.140;2022-09-13T08:40:24;19.10;57.40
32594;DHT22;19018;49.046;9.140;2022-09-13T08:43:05;19.20;57.50
32594;DHT22;19018;49.046;9.140;2022-09-13T08:45:36;19.30;57.60
32594;DHT22;19018;49.046;9.140;2022-09-13T08:48:03;19.30;57.50
32594;DHT22;19018;49.046;9.140;2022-09-13T08:50:33;19.50;57.60
32594;DHT22;19018;49.046;9.140;2022-09-13T09:00:43;19.80;57.70
32594;DHT22;19018;49.046;9.140;2022-09-13T09:05:44;19.90;57.60
32594;DHT22;19018;49.046;9.140;2022-09-13T09:10:57;20.10;57.90
32594;DHT22;19018;49.046;9.140;2022-09-13T09:13:35;20.20;57.90
32594;DHT22;19018;49.046;9.140;2022-09-13T09:16:06;20.30;57.90
32594;DHT22;19018;49.046;9.140;2022-09-13T09:18:35;20.30;58.30
32594;DHT22;19018;49.046;9.140;2022-09-13T09:21:02;20.50;57.90
32594;DHT22;19018;49.046;9.140;2022-09-13T09:28:19;20.70;58.10
32594;DHT22;19018;49.046;9.140;2022-09-13T09:30:53;20.70;58.10
32594;DHT22;19018;49.046;9.140;2022-09-13T09:36:10;21.00;58.10
32594;DHT22;19018;49.046;9.140;2022-09-13T09:38:39;21.10;58.20
32594;DHT22;19018;49.046;9.140;2022-09-13T09:41:22;21.20;58.20
32594;DHT22;19018;49.046;9.140;2022-09-13T09:46:20;21.40;58.50
32594;DHT22;19018;49.046;9.140;2022-09-13T09:48:56;21.50;58.80
32594;DHT22;19018;49.046;9.140;2022-09-13T09:51:25;21.60;59.10
32594;DHT22;19018;49.046;9.140;2022-09-13T09:53:53;21.80;59.30
32594;DHT22;19018;49.046;9.140;2022-09-13T09:56:25;21.90;59.20
32594;DHT22;19018;49.046;9.140;2022-09-13T09:58:52;22.10;59.30
32594;DHT22;19018;49.046;9.140;2022-09-13T10:01:29;22.20;59.50
32594;DHT22;19018;49.046;9.140;2022-09-13T10:06:33;22.50;59.50
32594;DHT22;19018;49.046;9.140;2022-09-13T10:11:42;22.80;59.50
32594;DHT22;19018;49.046;9.140;2022-09-13T10:16:35;23.10;59.60
32594;DHT22;19018;49.046;9.140;2022-09-13T10:19:23;23.20;59.60
32594;DHT22;19018;49.046;9.140;2022-09-13T10:21:58;23.40;59.60
32594;DHT22;19018;49.046;9.140;2022-09-13T10:24:24;23.60;59.50
32594;DHT22;19018;49.046;9.140;2022-09-13T10:26:51;23.70;59.50
32594;DHT22;19018;49.046;9.140;2022-09-13T10:29:17;23.80;59.50
32594;DHT22;19018;49.046;9.140;2022-09-13T10:31:43;24.00;59.50
32594;DHT22;19018;49.046;9.140;2022-09-13T10:34:15;24.10;59.50
32594;DHT22;19018;49.046;9.140;2022-09-13T10:39:16;24.40;59.40
32594;DHT22;19018;49.046;9.140;2022-09-13T10:41:47;24.50;59.40
32594;DHT22;19018;49.046;9.140;2022-09-13T10:44:30;24.60;59.30
32594;DHT22;19018;49.046;9.140;2022-09-13T10:46:57;24.80;59.40
32594;DHT22;19018;49.046;9.140;2022-09-13T10:51:49;25.00;59.20
32594;DHT22;19018;49.046;9.140;2022-09-13T10:54:24;25.10;58.90
32594;DHT22;19018;49.046;9.140;2022-09-13T10:56:50;25.30;58.80
32594;DHT22;19018;49.046;9.140;2022-09-13T11:01:43;25.50;58.90
32594;DHT22;19018;49.046;9.140;2022-09-13T11:07:02;25.70;58.70
32594;DHT22;19018;49.046;9.140;2022-09-13T11:09:33;26.00;59.10
32594;DHT22;19018;49.046;9.140;2022-09-13T11:12:03;26.00;59.10
32594;DHT22;19018;49.046;9.140;2022-09-13T11:22:23;26.50;58.80
32594;DHT22;19018;49.046;9.140;2022-09-13T11:28:05;26.70;58.60
32594;DHT22;19018;49.046;9.140;2022-09-13T11:31:18;26.80;58.50
32594;DHT22;19018;49.046;9.140;2022-09-13T11:35:58;26.90;58.30
32594;DHT22;19018;49.046;9.140;2022-09-13T11:38:35;27.00;58.20
32594;DHT22;19018;49.046;9.140;2022-09-13T11:56:38;27.40;57.90
32594;DHT22;19018;49.046;9.140;2022-09-13T11:59:17;27.40;57.90
32594;DHT22;19018;49.046;9.140;2022-09-13T12:01:53;27.50;57.80
32594;DHT22;19018;49.046;9.140;2022-09-13T12:06:50;27.60;57.70
32594;DHT22;19018;49.046;9.140;2022-09-13T12:09:27;27.60;58.20
32594;DHT22;19018;49.046;9.140;2022-09-13T12:12:02;27.60;57.60
32594;DHT22;19018;49.046;9.140;2022-09-13T12:14:29;27.70;57.60
32594;DHT22;19018;49.046;9.140;2022-09-13T12:16:57;27.70;57.60
32594;DHT22;19018;49.046;9.140;2022-09-13T12:22:19;27.80;58.40
32594;DHT22;19018;49.046;9.140;2022-09-13T12:24:50;27.80;57.80
32594;DHT22;19018;49.046;9.140;2022-09-13T12:27:21;27.90;57.30
32594;DHT22;19018;49.046;9.140;2022-09-13T12:29:52;27.90;57.90
32594;DHT22;19018;49.046;9.140;2022-09-13T12:32:19;28.00;57.40
32594;DHT22;19018;49.046;9.140;2022-09-13T12:37:23;28.10;57.30
32594;DHT22;19018;49.046;9.140;2022-09-13T12:55:59;28.30;56.00
32594;DHT22;19018;49.046;9.140;2022-09-13T12:58:35;28.40;55.80
32594;DHT22;19018;49.046;9.140;2022-09-13T13:03:35;28.50;57.10
32594;DHT22;19018;49.046;9.140;2022-09-13T13:08:49;28.60;56.00
32594;DHT22;19018;49.046;9.140;2022-09-13T13:11:15;28.60;55.90
32594;DHT22;19018;49.046;9.140;2022-09-13T13:13:43;28.70;55.80
32594;DHT22;19018;49.046;9.140;2022-09-13T13:16:21;28.70;56.10
32594;DHT22;19018;49.046;9.140;2022-09-13T13:18:48;28.70;56.10
32594;DHT22;19018;49.046;9.140;2022-09-13T13:23:46;28.90;56.30
32594;DHT22;19018;49.046;9.140;2022-09-13T13:34:25;29.00;56.30
32594;DHT22;19018;49.046;9.140;2022-09-13T13:36:43;29.10;56.10
32594;DHT22;19018;49.046;9.140;2022-09-13T13:42:32;29.10;56.80
32594;DHT22;19018;49.046;9.140;2022-09-13T13:59:50;29.20;56.30
32594;DHT22;19018;49.046;9.140;2022-09-13T14:02:17;29.30;56.50
32594;DHT22;19018;49.046;9.140;2022-09-13T14:10:10;29.40;56.00
32594;DHT22;19018;49.046;9.140;2022-09-13T14:20:24;29.50;55.90
32594;DHT22;19018;49.046;9.140;2022-09-13T14:22:49;29.50;55.90
32594;DHT22;19018;49.046;9.140;2022-09-13T14:27:41;29.50;55.70
32594;DHT22;19018;49.046;9.140;2022-09-13T14:32:47;29.60;55.60
32594;DHT22;19018;49.046;9.140;2022-09-13T14:38:11;29.60;55.50
32594;DHT22;19018;49.046;9.140;2022-09-13T14:40:37;29.50;55.40
32594;DHT22;19018;49.046;9.140;2022-09-13T14:43:12;29.60;56.00
32594;DHT22;19018;49.046;9.140;2022-09-13T14:45:38;29.50;55.30
32594;DHT22;19018;49.046;9.140;2022-09-13T14:50:39;29.50;55.30
32594;DHT22;19018;49.046;9.140;2022-09-13T14:53:09;29.50;55.30
32594;DHT22;19018;49.046;9.140;2022-09-13T14:55:38;29.50;55.20
32594;DHT22;19018;49.046;9.140;2022-09-13T14:58:06;29.50;55.10
32594;DHT22;19018;49.046;9.140;2022-09-13T15:00:44;29.50;55.20
32594;DHT22;19018;49.046;9.140;2022-09-13T15:03:11;29.50;55.20
32594;DHT22;19018;49.046;9.140;2022-09-13T15:05:38;29.50;55.00
32594;DHT22;19018;49.046;9.140;2022-09-13T15:10:50;29.50;54.90
32594;DHT22;19018;49.046;9.140;2022-09-13T15:13:15;29.30;54.70
32594;DHT22;19018;49.046;9.140;2022-09-13T15:15:41;29.50;54.80
32594;DHT22;19018;49.046;9.140;2022-09-13T15:23:17;29.40;54.50
32594;DHT22;19018;49.046;9.140;2022-09-13T15:26:25;29.40;54.50
32594;DHT22;19018;49.046;9.140;2022-09-13T15:28:33;29.40;54.50
32594;DHT22;19018;49.046;9.140;2022-09-13T15:30:59;29.40;54.40
32594;DHT22;19018;49.046;9.140;2022-09-13T15:35:50;29.40;54.20
32594;DHT22;19018;49.046;9.140;2022-09-13T15:43:33;29.30;54.00
32594;DHT22;19018;49.046;9.140;2022-09-13T15:45:59;29.30;53.90
32594;DHT22;19018;49.046;9.140;2022-09-13T15:48:30;29.30;53.90
32594;DHT22;19018;49.046;9.140;2022-09-13T15:53:31;29.30;53.80
32594;DHT22;19018;49.046;9.140;2022-09-13T15:58:22;29.20;53.60
32594;DHT22;19018;49.046;9.140;2022-09-13T16:00:48;29.10;53.50
32594;DHT22;19018;49.046;9.140;2022-09-13T16:03:13;29.10;53.60
32594;DHT22;19018;49.046;9.140;2022-09-13T16:08:07;29.10;53.70
32594;DHT22;19018;49.046;9.140;2022-09-13T16:10:33;29.00;53.40
32594;DHT22;19018;49.046;9.140;2022-09-13T16:12:59;29.00;53.50
32594;DHT22;19018;49.046;9.140;2022-09-13T16:15:24;28.90;53.20
32594;DHT22;19018;49.046;9.140;2022-09-13T16:17:50;29.00;53.40
32594;DHT22;19018;49.046;9.140;2022-09-13T16:20:15;28.90;52.40
32594;DHT22;19018;49.046;9.140;2022-09-13T16:22:42;28.90;52.90
32594;DHT22;19018;49.046;9.140;2022-09-13T16:27:33;28.80;53.10
32594;DHT22;19018;49.046;9.140;2022-09-13T16:30:00;28.80;53.20
32594;DHT22;19018;49.046;9.140;2022-09-13T16:32:26;28.70;53.20
32594;DHT22;19018;49.046;9.140;2022-09-13T16:34:51;28.70;52.90
32594;DHT22;19018;49.046;9.140;2022-09-13T16:37:17;28.70;53.00
32594;DHT22;19018;49.046;9.140;2022-09-13T16:39:44;28.70;53.10
32594;DHT22;19018;49.046;9.140;2022-09-13T16:44:35;28.60;52.90
32594;DHT22;19018;49.046;9.140;2022-09-13T16:47:01;28.50;52.50
32594;DHT22;19018;49.046;9.140;2022-09-13T16:51:53;28.40;51.90
32594;DHT22;19018;49.046;9.140;2022-09-13T16:54:18;28.40;52.70
32594;DHT22;19018;49.046;9.140;2022-09-13T16:56:47;28.30;52.80
32594;DHT22;19018;49.046;9.140;2022-09-13T16:59:16;28.30;52.90
32594;DHT22;19018;49.046;9.140;2022-09-13T17:01:42;28.30;52.70
32594;DHT22;19018;49.046;9.140;2022-09-13T17:04:07;28.20;52.70
32594;DHT22;19018;49.046;9.140;2022-09-13T17:06:38;28.20;52.80
32594;DHT22;19018;49.046;9.140;2022-09-13T17:09:04;28.10;52.80
32594;DHT22;19018;49.046;9.140;2022-09-13T17:11:32;28.10;52.70
32594;DHT22;19018;49.046;9.140;2022-09-13T17:13:58;28.10;52.90
32594;DHT22;19018;49.046;9.140;2022-09-13T17:18:50;28.00;52.80
32594;DHT22;19018;49.046;9.140;2022-09-13T17:23:41;27.90;52.70
32594;DHT22;19018;49.046;9.140;2022-09-13T17:28:33;27.80;52.70
32594;DHT22;19018;49.046;9.140;2022-09-13T17:31:02;27.80;52.80
32594;DHT22;19018;49.046;9.140;2022-09-13T17:33:28;27.70;52.70
32594;DHT22;19018;49.046;9.140;2022-09-13T17:35:58;27.70;52.70
32594;DHT22;19018;49.046;9.140;2022-09-13T17:38:23;27.70;52.70
32594;DHT22;19018;49.046;9.140;2022-09-13T17:40:59;27.70;52.70
32594;DHT22;19018;49.046;9.140;2022-09-13T17:43:25;27.60;52.70
32594;DHT22;19018;49.046;9.140;2022-09-13T17:45:51;27.50;52.60
32594;DHT22;19018;49.046;9.140;2022-09-13T17:48:16;27.50;52.60
32594;DHT22;19018;49.046;9.140;2022-09-13T17:50:42;27.40;52.30
32594;DHT22;19018;49.046;9.140;2022-09-13T17:53:08;27.30;52.30
32594;DHT22;19018;49.046;9.140;2022-09-13T17:55:33;27.40;52.50
32594;DHT22;19018;49.046;9.140;2022-09-13T17:57:59;27.30;52.50
32594;DHT22;19018;49.046;9.140;2022-09-13T18:00:24;27.20;52.50
32594;DHT22;19018;49.046;9.140;2022-09-13T18:02:50;27.10;52.30
32594;DHT22;19018;49.046;9.140;2022-09-13T18:07:42;27.10;52.40
32594;DHT22;19018;49.046;9.140;2022-09-13T18:10:08;27.00;52.50
32594;DHT22;19018;49.046;9.140;2022-09-13T18:12:33;27.00;52.50
32594;DHT22;19018;49.046;9.140;2022-09-13T18:14:59;26.90;52.40
32594;DHT22;19018;49.046;9.140;2022-09-13T18:17:26;26.90;52.40
32594;DHT22;19018;49.046;9.140;2022-09-13T18:19:51;26.80;52.40
32594;DHT22;19018;49.046;9.140;2022-09-13T18:22:17;26.80;52.40
32594;DHT22;19018;49.046;9.140;2022-09-13T18:27:08;26.70;52.40
32594;DHT22;19018;49.046;9.140;2022-09-13T18:29:34;26.70;52.40
32594;DHT22;19018;49.046;9.140;2022-09-13T18:32:00;26.60;52.30
32594;DHT22;19018;49.046;9.140;2022-09-13T18:34:26;26.60;52.40
32594;DHT22;19018;49.046;9.140;2022-09-13T18:36:52;26.50;52.30
32594;DHT22;19018;49.046;9.140;2022-09-13T18:39:19;26.50;52.30
32594;DHT22;19018;49.046;9.140;2022-09-13T18:41:45;26.40;52.20
32594;DHT22;19018;49.046;9.140;2022-09-13T18:46:37;26.30;52.20
32594;DHT22;19018;49.046;9.140;2022-09-13T18:49:03;26.30;52.20
32594;DHT22;19018;49.046;9.140;2022-09-13T18:51:33;26.20;52.20
32594;DHT22;19018;49.046;9.140;2022-09-13T18:53:59;26.20;52.20
32594;DHT22;19018;49.046;9.140;2022-09-13T18:56:25;26.10;52.20
32594;DHT22;19018;49.046;9.140;2022-09-13T18:58:51;26.00;52.10
32594;DHT22;19018;49.046;9.140;2022-09-13T19:01:18;26.00;52.10
32594;DHT22;19018;49.046;9.140;2022-09-13T19:03:48;26.00;52.10
32594;DHT22;19018;49.046;9.140;2022-09-13T19:06:15;26.00;52.20
32594;DHT22;19018;49.046;9.140;2022-09-13T19:11:07;25.80;52.10
32594;DHT22;19018;49.046;9.140;2022-09-13T19:13:33;25.80;52.10
32594;DHT22;19018;49.046;9.140;2022-09-13T19:15:59;25.70;52.10
32594;DHT22;19018;49.046;9.140;2022-09-13T19:20:51;25.60;52.00
32594;DHT22;19018;49.046;9.140;2022-09-13T19:23:24;25.60;52.10
32594;DHT22;19018;49.046;9.140;2022-09-13T19:25:50;25.50;52.00
32594;DHT22;19018;49.046;9.140;2022-09-13T19:28:15;25.50;52.00
32594;DHT22;19018;49.046;9.140;2022-09-13T19:30:41;25.40;52.00
32594;DHT22;19018;49.046;9.140;2022-09-13T19:33:06;25.30;51.90
32594;DHT22;19018;49.046;9.140;2022-09-13T19:35:33;25.30;52.00
32594;DHT22;19018;49.046;9.140;2022-09-13T19:37:59;25.30;52.00
32594;DHT22;19018;49.046;9.140;2022-09-13T19:40:24;25.20;52.50
32594;DHT22;19018;49.046;9.140;2022-09-13T19:42:50;25.10;52.00
32594;DHT22;19018;49.046;9.140;2022-09-13T19:45:16;25.10;52.00
32594;DHT22;19018;49.046;9.140;2022-09-13T19:47:41;25.00;52.00
32594;DHT22;19018;49.046;9.140;2022-09-13T19:50:07;25.00;52.00
32594;DHT22;19018;49.046;9.140;2022-09-13T19:54:58;24.90;52.00
32594;DHT22;19018;49.046;9.140;2022-09-13T19:57:24;24.80;52.00
32594;DHT22;19018;49.046;9.140;2022-09-13T19:59:50;24.80;52.00
32594;DHT22;19018;49.046;9.140;2022-09-13T20:02:15;24.70;52.00
32594;DHT22;19018;49.046;9.140;2022-09-13T20:04:41;24.70;52.10